sensor_id;sensor_type;location;lat;lon;timestamp;pressure;altitude;pressure_sealevel;temperature;humidity
75972;BME280;64651;47.540;19.088;2023-04-16T00:04:30;100180.63;;;7.00;95.77
75972;BME280;64651;47.540;19.088;2023-04-16T00:09:33;100192.00;;;6.86;96.21
75972;BME280;64651;47.540;19.088;2023-04-16T00:14:35;100192.59;;;6.62;96.69
75972;BME280;64651;47.540;19.088;2023-04-16T00:19:37;100192.19;;;6.48;97.07
75972;BME280;64651;47.540;19.088;2023-04-16T00:24:39;100193.78;;;6.44;97.33
75972;BME280;64651;47.540;19.088;2023-04-16T00:29:42;100198.12;;;6.40;97.55
75972;BME280;64651;47.540;19.088;2023-04-16T00:34:44;100201.34;;;6.37;97.81
75972;BME280;64651;47.540;19.088;2023-04-16T00:39:46;100198.12;;;6.40;97.96
75972;BME280;64651;47.540;19.088;2023-04-16T00:44:49;100204.62;;;6.34;98.25
75972;BME280;64651;47.540;19.088;2023-04-16T00:49:51;100196.91;;;6.31;98.40
75972;BME280;64651;47.540;19.088;2023-04-16T00:54:53;100203.41;;;6.25;98.60
75972;BME280;64651;47.540;19.088;2023-04-16T00:59:56;100202.59;;;6.24;98.64
75972;BME280;64651;47.540;19.088;2023-04-16T01:05:00;100194.62;;;6.23;98.74
75972;BME280;64651;47.540;19.088;2023-04-16T01:10:02;100198.53;;;6.27;98.85
75972;BME280;64651;47.540;19.088;2023-04-16T01:15:05;100199.91;;;6.29;98.87
75972;BME280;64651;47.540;19.088;2023-04-16T01:20:08;100207.84;;;6.31;98.93
75972;BME280;64651;47.540;19.088;2023-04-16T01:25:13;100216.69;;;6.38;98.93
75972;BME280;64651;47.540;19.088;2023-04-16T01:30:16;100220.72;;;6.35;99.02
75972;BME280;64651;47.540;19.088;2023-04-16T01:35:18;100213.94;;;6.38;99.07
75972;BME280;64651;47.540;19.088;2023-04-16T01:40:21;100202.69;;;6.34;99.10
75972;BME280;64651;47.540;19.088;2023-04-16T01:45:24;100219.47;;;6.43;99.01
75972;BME280;64651;47.540;19.088;2023-04-16T01:50:26;100217.56;;;6.43;99.02
75972;BME280;64651;47.540;19.088;2023-04-16T01:55:31;100223.41;;;6.30;99.08
75972;BME280;64651;47.540;19.088;2023-04-16T02:00:33;100220.88;;;6.24;99.09
75972;BME280;64651;47.540;19.088;2023-04-16T02:05:35;100216.13;;;6.14;99.19
75972;BME280;64651;47.540;19.088;2023-04-16T02:10:37;100209.41;;;6.00;99.35
75972;BME280;64651;47.540;19.088;2023-04-16T02:15:46;100225.78;;;6.00;99.38
75972;BME280;64651;47.540;19.088;2023-04-16T02:20:50;100211.09;;;5.84;99.38
75972;BME280;64651;47.540;19.088;2023-04-16T02:25:52;100229.75;;;5.92;99.39
75972;BME280;64651;47.540;19.088;2023-04-16T02:30:54;100223.50;;;5.75;99.66
75972;BME280;64651;47.540;19.088;2023-04-16T02:35:56;100236.31;;;5.75;99.71
75972;BME280;64651;47.540;19.088;2023-04-16T02:41:01;100224.13;;;5.60;99.85
75972;BME280;64651;47.540;19.088;2023-04-16T02:46:03;100236.59;;;5.56;99.92
75972;BME280;64651;47.540;19.088;2023-04-16T02:51:06;100232.44;;;5.49;100.00
75972;BME280;64651;47.540;19.088;2023-04-16T02:56:08;100238.78;;;5.38;100.00
75972;BME280;64651;47.540;19.088;2023-04-16T03:01:10;100223.75;;;5.35;100.00
75972;BME280;64651;47.540;19.088;2023-04-16T03:06:13;100225.00;;;5.27;100.00
75972;BME280;64651;47.540;19.088;2023-04-16T03:11:15;100230.75;;;5.31;100.00
75972;BME280;64651;47.540;19.088;2023-04-16T03:16:17;100232.69;;;5.30;100.00
75972;BME280;64651;47.540;19.088;2023-04-16T03:21:20;100235.44;;;5.30;100.00
75972;BME280;64651;47.540;19.088;2023-04-16T03:26:22;100246.16;;;5.20;100.00
75972;BME280;64651;47.540;19.088;2023-04-16T03:31:24;100246.50;;;5.24;100.00
75972;BME280;64651;47.540;19.088;2023-04-16T03:36:26;100248.62;;;5.22;100.00
75972;BME280;64651;47.540;19.088;2023-04-16T03:41:29;100261.59;;;5.31;100.00
75972;BME280;64651;47.540;19.088;2023-04-16T03:46:31;100286.34;;;5.42;100.00
75972;BME280;64651;47.540;19.088;2023-04-16T03:51:34;100285.50;;;5.24;100.00
75972;BME280;64651;47.540;19.088;2023-04-16T03:56:36;100301.28;;;5.22;100.00
75972;BME280;64651;47.540;19.088;2023-04-16T04:01:38;100302.44;;;5.26;100.00
75972;BME280;64651;47.540;19.088;2023-04-16T04:06:40;100306.25;;;5.42;100.00
75972;BME280;64651;47.540;19.088;2023-04-16T04:11:43;100309.38;;;5.51;100.00
75972;BME280;64651;47.540;19.088;2023-04-16T04:16:45;100302.44;;;5.60;100.00
75972;BME280;64651;47.540;19.088;2023-04-16T04:21:47;100304.25;;;5.71;100.00
75972;BME280;64651;47.540;19.088;2023-04-16T04:26:50;100299.53;;;5.83;100.00
75972;BME280;64651;47.540;19.088;2023-04-16T04:31:52;100304.97;;;6.00;100.00
75972;BME280;64651;47.540;19.088;2023-04-16T04:36:56;100308.28;;;6.24;100.00
75972;BME280;64651;47.540;19.088;2023-04-16T04:41:58;100328.37;;;6.56;99.64
75972;BME280;64651;47.540;19.088;2023-04-16T04:47:01;100331.28;;;6.71;99.33
75972;BME280;64651;47.540;19.088;2023-04-16T04:52:04;100318.87;;;6.59;99.26
75972;BME280;64651;47.540;19.088;2023-04-16T04:57:07;100328.37;;;6.34;98.99
75972;BME280;64651;47.540;19.088;2023-04-16T05:02:10;100332.22;;;6.33;98.66
75972;BME280;64651;47.540;19.088;2023-04-16T05:07:13;100337.03;;;6.48;98.17
75972;BME280;64651;47.540;19.088;2023-04-16T05:12:15;100336.06;;;6.59;97.73
75972;BME280;64651;47.540;19.088;2023-04-16T05:17:17;100345.78;;;6.72;97.28
75972;BME280;64651;47.540;19.088;2023-04-16T05:22:20;100339.78;;;6.97;96.69
75972;BME280;64651;47.540;19.088;2023-04-16T05:27:22;100338.28;;;7.11;96.09
75972;BME280;64651;47.540;19.088;2023-04-16T05:32:25;100332.94;;;7.26;94.81
75972;BME280;64651;47.540;19.088;2023-04-16T05:37:27;100339.09;;;7.38;93.48
75972;BME280;64651;47.540;19.088;2023-04-16T05:42:29;100354.00;;;7.52;92.63
75972;BME280;64651;47.540;19.088;2023-04-16T05:47:31;100366.47;;;7.70;91.79
75972;BME280;64651;47.540;19.088;2023-04-16T05:52:34;100364.16;;;7.89;91.15
75972;BME280;64651;47.540;19.088;2023-04-16T05:57:36;100369.19;;;8.02;90.16
75972;BME280;64651;47.540;19.088;2023-04-16T06:02:38;100372.31;;;8.21;88.97
75972;BME280;64651;47.540;19.088;2023-04-16T06:07:41;100379.84;;;8.35;88.79
75972;BME280;64651;47.540;19.088;2023-04-16T06:12:45;100383.53;;;8.61;87.84
75972;BME280;64651;47.540;19.088;2023-04-16T06:17:48;100373.50;;;8.87;86.63
75972;BME280;64651;47.540;19.088;2023-04-16T06:22:50;100373.03;;;9.10;85.83
75972;BME280;64651;47.540;19.088;2023-04-16T06:27:53;100381.00;;;9.17;85.41
75972;BME280;64651;47.540;19.088;2023-04-16T06:32:55;100373.06;;;9.35;84.59
75972;BME280;64651;47.540;19.088;2023-04-16T06:37:57;100367.59;;;9.76;82.66
75972;BME280;64651;47.540;19.088;2023-04-16T06:43:02;100371.44;;;10.15;80.74
75972;BME280;64651;47.540;19.088;2023-04-16T06:48:07;100367.78;;;10.55;78.79
75972;BME280;64651;47.540;19.088;2023-04-16T06:53:09;100370.97;;;10.88;77.24
75972;BME280;64651;47.540;19.088;2023-04-16T06:58:12;100377.31;;;10.83;76.75
75972;BME280;64651;47.540;19.088;2023-04-16T07:03:14;100364.53;;;11.08;76.15
75972;BME280;64651;47.540;19.088;2023-04-16T07:08:16;100370.09;;;10.92;75.38
75972;BME280;64651;47.540;19.088;2023-04-16T07:13:19;100368.75;;;11.39;74.46
75972;BME280;64651;47.540;19.088;2023-04-16T07:18:21;100378.78;;;11.20;74.94
75972;BME280;64651;47.540;19.088;2023-04-16T07:23:23;100379.41;;;11.51;73.88
75972;BME280;64651;47.540;19.088;2023-04-16T07:28:28;100375.03;;;11.84;72.70
75972;BME280;64651;47.540;19.088;2023-04-16T07:33:31;100371.00;;;12.34;70.96
75972;BME280;64651;47.540;19.088;2023-04-16T07:38:33;100366.41;;;12.95;68.75
75972;BME280;64651;47.540;19.088;2023-04-16T07:43:38;100376.50;;;13.29;66.27
75972;BME280;64651;47.540;19.088;2023-04-16T07:48:41;100374.41;;;13.39;66.71
75972;BME280;64651;47.540;19.088;2023-04-16T07:53:46;100364.81;;;13.13;67.46
75972;BME280;64651;47.540;19.088;2023-04-16T07:58:48;100364.09;;;13.45;66.19
75972;BME280;64651;47.540;19.088;2023-04-16T08:03:50;100373.53;;;14.41;61.83
75972;BME280;64651;47.540;19.088;2023-04-16T08:08:53;100377.00;;;15.29;59.45
75972;BME280;64651;47.540;19.088;2023-04-16T08:13:55;100376.34;;;15.32;58.79
75972;BME280;64651;47.540;19.088;2023-04-16T08:19:18;100373.72;;;15.13;59.00
75972;BME280;64651;47.540;19.088;2023-04-16T08:24:22;100371.34;;;15.70;57.71
75972;BME280;64651;47.540;19.088;2023-04-16T08:29:24;100359.81;;;17.09;53.39
75972;BME280;64651;47.540;19.088;2023-04-16T08:34:27;100356.63;;;17.50;51.26
75972;BME280;64651;47.540;19.088;2023-04-16T08:39:32;100362.87;;;16.19;54.19
75972;BME280;64651;47.540;19.088;2023-04-16T08:44:42;100363.75;;;17.08;52.79
75972;BME280;64651;47.540;19.088;2023-04-16T08:55:08;100370.94;;;19.14;47.64
75972;BME280;64651;47.540;19.088;2023-04-16T09:00:15;100378.75;;;19.91;45.60
75972;BME280;64651;47.540;19.088;2023-04-16T09:05:17;100382.28;;;19.38;45.43
75972;BME280;64651;47.540;19.088;2023-04-16T09:10:22;100381.38;;;18.58;47.55
75972;BME280;64651;47.540;19.088;2023-04-16T09:15:25;100384.06;;;18.84;47.12
75972;BME280;64651;47.540;19.088;2023-04-16T09:20:27;100385.94;;;18.71;47.35
75972;BME280;64651;47.540;19.088;2023-04-16T09:25:33;100397.53;;;18.01;49.03
75972;BME280;64651;47.540;19.088;2023-04-16T09:30:36;100395.66;;;17.27;51.04
75972;BME280;64651;47.540;19.088;2023-04-16T09:35:44;100400.41;;;17.18;51.75
75972;BME280;64651;47.540;19.088;2023-04-16T09:41:04;100412.84;;;16.19;54.11
75972;BME280;64651;47.540;19.088;2023-04-16T09:46:10;100408.38;;;15.88;55.70
75972;BME280;64651;47.540;19.088;2023-04-16T09:51:13;100410.75;;;15.80;56.19
75972;BME280;64651;47.540;19.088;2023-04-16T09:56:15;100418.31;;;15.66;56.75
75972;BME280;64651;47.540;19.088;2023-04-16T10:01:18;100415.03;;;15.64;56.93
75972;BME280;64651;47.540;19.088;2023-04-16T10:06:21;100414.69;;;16.02;56.37
75972;BME280;64651;47.540;19.088;2023-04-16T10:11:26;100406.03;;;16.87;53.59
75972;BME280;64651;47.540;19.088;2023-04-16T10:16:29;100391.16;;;18.09;50.51
75972;BME280;64651;47.540;19.088;2023-04-16T10:21:32;100388.44;;;19.94;45.93
75972;BME280;64651;47.540;19.088;2023-04-16T10:26:35;100389.69;;;20.50;44.52
75972;BME280;64651;47.540;19.088;2023-04-16T10:31:38;100386.56;;;20.63;43.77
75972;BME280;64651;47.540;19.088;2023-04-16T10:36:41;100371.84;;;21.92;41.14
75972;BME280;64651;47.540;19.088;2023-04-16T10:41:44;100368.75;;;22.37;39.99
75972;BME280;64651;47.540;19.088;2023-04-16T10:46:47;100367.84;;;23.27;38.07
75972;BME280;64651;47.540;19.088;2023-04-16T10:51:57;100359.94;;;23.67;37.13
75972;BME280;64651;47.540;19.088;2023-04-16T10:57:04;100355.34;;;25.04;34.42
75972;BME280;64651;47.540;19.088;2023-04-16T11:02:12;100356.22;;;25.61;32.41
75972;BME280;64651;47.540;19.088;2023-04-16T11:12:22;100331.50;;;27.57;29.70
75972;BME280;64651;47.540;19.088;2023-04-16T11:17:29;100324.91;;;26.84;29.67
75972;BME280;64651;47.540;19.088;2023-04-16T11:22:34;100328.59;;;28.69;27.50
75972;BME280;64651;47.540;19.088;2023-04-16T11:27:37;100332.59;;;29.53;25.66
75972;BME280;64651;47.540;19.088;2023-04-16T11:32:40;100320.91;;;25.71;30.46
75972;BME280;64651;47.540;19.088;2023-04-16T11:37:43;100322.47;;;24.63;33.44
75972;BME280;64651;47.540;19.088;2023-04-16T11:42:45;100322.09;;;23.80;34.03
75972;BME280;64651;47.540;19.088;2023-04-16T11:47:52;100315.41;;;25.25;31.99
75972;BME280;64651;47.540;19.088;2023-04-16T11:53:02;100308.22;;;27.13;29.01
75972;BME280;64651;47.540;19.088;2023-04-16T11:58:13;100319.63;;;26.79;29.73
75972;BME280;64651;47.540;19.088;2023-04-16T12:03:18;100310.88;;;24.91;31.47
75972;BME280;64651;47.540;19.088;2023-04-16T12:08:29;100299.47;;;26.77;29.91
75972;BME280;64651;47.540;19.088;2023-04-16T12:13:32;100303.31;;;27.75;27.80
75972;BME280;64651;47.540;19.088;2023-04-16T12:19:00;100294.19;;;26.76;26.56
75972;BME280;64651;47.540;19.088;2023-04-16T12:24:05;100292.66;;;26.38;26.68
75972;BME280;64651;47.540;19.088;2023-04-16T12:34:20;100288.19;;;24.12;30.75
75972;BME280;64651;47.540;19.088;2023-04-16T12:39:43;100285.78;;;22.98;33.06
75972;BME280;64651;47.540;19.088;2023-04-16T12:44:47;100280.87;;;23.30;32.69
75972;BME280;64651;47.540;19.088;2023-04-16T12:49:49;100275.66;;;22.15;34.45
75972;BME280;64651;47.540;19.088;2023-04-16T12:54:52;100273.56;;;21.97;34.67
75972;BME280;64651;47.540;19.088;2023-04-16T12:59:54;100267.81;;;22.21;34.22
75972;BME280;64651;47.540;19.088;2023-04-16T13:04:58;100269.12;;;23.44;32.20
75972;BME280;64651;47.540;19.088;2023-04-16T13:10:01;100264.37;;;24.06;31.54
75972;BME280;64651;47.540;19.088;2023-04-16T13:15:03;100263.25;;;23.68;33.09
75972;BME280;64651;47.540;19.088;2023-04-16T13:20:06;100251.84;;;22.88;34.03
75972;BME280;64651;47.540;19.088;2023-04-16T13:25:08;100249.03;;;22.88;34.26
75972;BME280;64651;47.540;19.088;2023-04-16T13:30:11;100249.03;;;21.94;35.57
75972;BME280;64651;47.540;19.088;2023-04-16T13:35:13;100246.63;;;21.36;36.80
75972;BME280;64651;47.540;19.088;2023-04-16T13:40:15;100240.50;;;20.67;38.07
75972;BME280;64651;47.540;19.088;2023-04-16T13:45:18;100237.66;;;20.18;38.73
75972;BME280;64651;47.540;19.088;2023-04-16T13:50:22;100237.37;;;19.87;39.24
75972;BME280;64651;47.540;19.088;2023-04-16T13:55:24;100234.25;;;19.88;39.68
75972;BME280;64651;47.540;19.088;2023-04-16T14:00:26;100241.09;;;19.91;39.52
75972;BME280;64651;47.540;19.088;2023-04-16T14:05:29;100228.59;;;19.43;39.68
75972;BME280;64651;47.540;19.088;2023-04-16T14:10:31;100219.87;;;19.44;39.69
75972;BME280;64651;47.540;19.088;2023-04-16T14:15:34;100237.19;;;19.38;41.04
75972;BME280;64651;47.540;19.088;2023-04-16T14:20:36;100228.47;;;18.98;41.55
75972;BME280;64651;47.540;19.088;2023-04-16T14:25:40;100236.06;;;18.68;42.44
75972;BME280;64651;47.540;19.088;2023-04-16T14:30:43;100227.84;;;18.42;42.40
75972;BME280;64651;47.540;19.088;2023-04-16T14:35:45;100220.97;;;18.10;41.91
75972;BME280;64651;47.540;19.088;2023-04-16T14:40:47;100219.50;;;18.04;41.57
75972;BME280;64651;47.540;19.088;2023-04-16T14:45:49;100206.75;;;18.03;41.49
75972;BME280;64651;47.540;19.088;2023-04-16T14:50:52;100212.00;;;17.96;40.38
75972;BME280;64651;47.540;19.088;2023-04-16T14:55:54;100212.19;;;18.29;40.08
75972;BME280;64651;47.540;19.088;2023-04-16T15:00:59;100210.28;;;18.12;40.04
75972;BME280;64651;47.540;19.088;2023-04-16T15:06:02;100209.59;;;17.86;40.22
75972;BME280;64651;47.540;19.088;2023-04-16T15:11:04;100203.97;;;18.03;39.58
75972;BME280;64651;47.540;19.088;2023-04-16T15:16:06;100196.75;;;18.32;39.29
75972;BME280;64651;47.540;19.088;2023-04-16T15:21:10;100200.53;;;18.36;39.08
75972;BME280;64651;47.540;19.088;2023-04-16T15:26:13;100208.69;;;18.91;38.23
75972;BME280;64651;47.540;19.088;2023-04-16T15:31:16;100208.41;;;19.46;36.45
75972;BME280;64651;47.540;19.088;2023-04-16T15:36:18;100207.16;;;19.35;36.34
75972;BME280;64651;47.540;19.088;2023-04-16T15:41:21;100201.72;;;21.61;33.17
75972;BME280;64651;47.540;19.088;2023-04-16T15:46:24;100195.09;;;22.44;31.50
75972;BME280;64651;47.540;19.088;2023-04-16T15:51:26;100199.81;;;20.69;34.06
75972;BME280;64651;47.540;19.088;2023-04-16T15:56:30;100201.62;;;19.68;36.11
75972;BME280;64651;47.540;19.088;2023-04-16T16:01:32;100202.31;;;18.90;37.91
75972;BME280;64651;47.540;19.088;2023-04-16T16:06:35;100199.97;;;18.42;39.52
75972;BME280;64651;47.540;19.088;2023-04-16T16:11:39;100195.81;;;17.90;40.58
75972;BME280;64651;47.540;19.088;2023-04-16T16:16:45;100209.69;;;17.17;42.53
75972;BME280;64651;47.540;19.088;2023-04-16T16:21:47;100206.44;;;16.81;43.88
75972;BME280;64651;47.540;19.088;2023-04-16T16:26:49;100211.16;;;16.63;44.60
75972;BME280;64651;47.540;19.088;2023-04-16T16:31:51;100215.34;;;16.52;45.45
75972;BME280;64651;47.540;19.088;2023-04-16T16:36:54;100217.13;;;16.48;45.80
75972;BME280;64651;47.540;19.088;2023-04-16T16:41:56;100216.00;;;16.57;45.65
75972;BME280;64651;47.540;19.088;2023-04-16T16:46:59;100208.22;;;16.68;45.83
75972;BME280;64651;47.540;19.088;2023-04-16T16:52:01;100217.38;;;16.69;45.44
75972;BME280;64651;47.540;19.088;2023-04-16T16:57:03;100209.50;;;16.62;45.49
75972;BME280;64651;47.540;19.088;2023-04-16T17:02:06;100219.75;;;16.53;46.19
75972;BME280;64651;47.540;19.088;2023-04-16T17:07:08;100219.06;;;16.39;46.84
75972;BME280;64651;47.540;19.088;2023-04-16T17:12:10;100218.69;;;16.23;47.67
75972;BME280;64651;47.540;19.088;2023-04-16T17:17:12;100217.50;;;16.07;48.06
75972;BME280;64651;47.540;19.088;2023-04-16T17:22:15;100216.59;;;15.89;48.51
75972;BME280;64651;47.540;19.088;2023-04-16T17:27:17;100242.44;;;15.67;49.28
75972;BME280;64651;47.540;19.088;2023-04-16T17:32:19;100232.97;;;15.46;50.16
75972;BME280;64651;47.540;19.088;2023-04-16T17:37:22;100237.75;;;15.32;50.22
75972;BME280;64651;47.540;19.088;2023-04-16T17:42:24;100240.69;;;15.13;51.22
75972;BME280;64651;47.540;19.088;2023-04-16T17:47:26;100246.78;;;15.01;51.64
75972;BME280;64651;47.540;19.088;2023-04-16T17:52:29;100247.22;;;14.95;52.44
75972;BME280;64651;47.540;19.088;2023-04-16T17:57:31;100250.66;;;14.78;53.25
75972;BME280;64651;47.540;19.088;2023-04-16T18:02:33;100258.69;;;14.66;54.42
75972;BME280;64651;47.540;19.088;2023-04-16T18:07:36;100270.59;;;14.53;54.83
75972;BME280;64651;47.540;19.088;2023-04-16T18:12:39;100273.69;;;14.38;55.68
75972;BME280;64651;47.540;19.088;2023-04-16T18:17:42;100281.53;;;14.31;56.88
75972;BME280;64651;47.540;19.088;2023-04-16T18:22:44;100287.78;;;14.22;57.86
75972;BME280;64651;47.540;19.088;2023-04-16T18:27:47;100289.84;;;14.17;58.79
75972;BME280;64651;47.540;19.088;2023-04-16T18:32:50;100288.00;;;14.12;59.27
75972;BME280;64651;47.540;19.088;2023-04-16T18:38:12;100296.06;;;14.09;60.22
75972;BME280;64651;47.540;19.088;2023-04-16T18:43:14;100260.59;;;13.97;61.29
75972;BME280;64651;47.540;19.088;2023-04-16T18:48:17;100276.28;;;13.88;62.10
75972;BME280;64651;47.540;19.088;2023-04-16T18:53:19;100262.62;;;13.78;62.54
75972;BME280;64651;47.540;19.088;2023-04-16T18:58:22;100257.41;;;13.76;62.68
75972;BME280;64651;47.540;19.088;2023-04-16T19:03:25;100272.25;;;13.80;62.64
75972;BME280;64651;47.540;19.088;2023-04-16T19:08:29;100264.59;;;13.77;62.65
75972;BME280;64651;47.540;19.088;2023-04-16T19:13:31;100259.69;;;13.88;62.41
75972;BME280;64651;47.540;19.088;2023-04-16T19:18:34;100250.25;;;13.89;62.47
75972;BME280;64651;47.540;19.088;2023-04-16T19:23:36;100258.22;;;13.77;62.64
75972;BME280;64651;47.540;19.088;2023-04-16T19:28:38;100260.66;;;13.65;63.26
75972;BME280;64651;47.540;19.088;2023-04-16T19:33:41;100261.25;;;13.62;63.58
75972;BME280;64651;47.540;19.088;2023-04-16T19:38:43;100257.56;;;13.53;63.67
75972;BME280;64651;47.540;19.088;2023-04-16T19:43:45;100257.41;;;13.44;63.56
75972;BME280;64651;47.540;19.088;2023-04-16T19:48:47;100256.09;;;13.42;63.25
75972;BME280;64651;47.540;19.088;2023-04-16T19:53:49;100253.38;;;13.36;63.27
75972;BME280;64651;47.540;19.088;2023-04-16T19:58:53;100251.59;;;13.46;63.02
75972;BME280;64651;47.540;19.088;2023-04-16T20:03:56;100257.22;;;13.40;63.23
75972;BME280;64651;47.540;19.088;2023-04-16T20:08:58;100248.09;;;13.40;63.26
75972;BME280;64651;47.540;19.088;2023-04-16T20:14:01;100253.63;;;13.40;62.75
75972;BME280;64651;47.540;19.088;2023-04-16T20:19:03;100243.28;;;13.46;62.32
75972;BME280;64651;47.540;19.088;2023-04-16T20:24:09;100245.53;;;13.44;62.37
75972;BME280;64651;47.540;19.088;2023-04-16T20:29:11;100248.00;;;13.45;62.26
75972;BME280;64651;47.540;19.088;2023-04-16T20:34:14;100246.66;;;13.43;62.34
75972;BME280;64651;47.540;19.088;2023-04-16T20:39:16;100247.47;;;13.43;62.13
75972;BME280;64651;47.540;19.088;2023-04-16T20:44:24;100248.38;;;13.38;62.44
75972;BME280;64651;47.540;19.088;2023-04-16T20:49:42;100247.03;;;13.36;62.44
75972;BME280;64651;47.540;19.088;2023-04-16T20:54:50;100248.19;;;13.35;62.49
75972;BME280;64651;47.540;19.088;2023-04-16T20:59:53;100245.81;;;13.28;62.70
75972;BME280;64651;47.540;19.088;2023-04-16T21:04:55;100245.56;;;13.25;62.72
75972;BME280;64651;47.540;19.088;2023-04-16T21:09:57;100237.16;;;13.16;63.31
75972;BME280;64651;47.540;19.088;2023-04-16T21:15:02;100248.56;;;13.10;63.60
75972;BME280;64651;47.540;19.088;2023-04-16T21:20:05;100245.25;;;13.08;63.43
75972;BME280;64651;47.540;19.088;2023-04-16T21:25:11;100240.56;;;13.08;63.41
75972;BME280;64651;47.540;19.088;2023-04-16T21:30:13;100231.97;;;13.10;63.60
75972;BME280;64651;47.540;19.088;2023-04-16T21:35:16;100230.19;;;13.00;63.80
75972;BME280;64651;47.540;19.088;2023-04-16T21:40:18;100226.84;;;13.03;63.70
75972;BME280;64651;47.540;19.088;2023-04-16T21:45:20;100232.06;;;12.86;64.22
75972;BME280;64651;47.540;19.088;2023-04-16T21:50:22;100238.84;;;12.75;64.53
75972;BME280;64651;47.540;19.088;2023-04-16T21:55:25;100226.97;;;12.55;65.46
75972;BME280;64651;47.540;19.088;2023-04-16T22:00:27;100224.66;;;12.44;65.80
75972;BME280;64651;47.540;19.088;2023-04-16T22:05:29;100218.06;;;12.40;65.94
75972;BME280;64651;47.540;19.088;2023-04-16T22:10:32;100223.84;;;12.43;65.73
75972;BME280;64651;47.540;19.088;2023-04-16T22:15:35;100213.16;;;12.37;65.76
75972;BME280;64651;47.540;19.088;2023-04-16T22:20:37;100219.53;;;12.32;66.14
75972;BME280;64651;47.540;19.088;2023-04-16T22:25:40;100207.19;;;12.30;65.86
75972;BME280;64651;47.540;19.088;2023-04-16T22:30:42;100208.47;;;12.37;65.24
75972;BME280;64651;47.540;19.088;2023-04-16T22:35:44;100209.56;;;12.36;65.14
75972;BME280;64651;47.540;19.088;2023-04-16T22:40:47;100202.87;;;12.42;64.62
75972;BME280;64651;47.540;19.088;2023-04-16T22:45:59;100197.44;;;12.37;64.53
75972;BME280;64651;47.540;19.088;2023-04-16T22:51:02;100198.62;;;12.31;64.85
75972;BME280;64651;47.540;19.088;2023-04-16T22:56:05;100204.78;;;12.23;64.85
75972;BME280;64651;47.540;19.088;2023-04-16T23:01:07;100200.38;;;12.22;64.80
75972;BME280;64651;47.540;19.088;2023-04-16T23:06:10;100183.81;;;12.22;64.92
75972;BME280;64651;47.540;19.088;2023-04-16T23:11:12;100189.28;;;12.27;64.45
75972;BME280;64651;47.540;19.088;2023-04-16T23:16:14;100184.66;;;12.23;64.89
75972;BME280;64651;47.540;19.088;2023-04-16T23:21:17;100174.22;;;12.19;64.96
75972;BME280;64651;47.540;19.088;2023-04-16T23:26:19;100177.78;;;12.20;64.74
75972;BME280;64651;47.540;19.088;2023-04-16T23:31:21;100170.69;;;12.14;65.04
75972;BME280;64651;47.540;19.088;2023-04-16T23:36:24;100168.25;;;12.12;65.06
75972;BME280;64651;47.540;19.088;2023-04-16T23:41:27;100175.63;;;12.17;64.82
75972;BME280;64651;47.540;19.088;2023-04-16T23:46:29;100165.16;;;12.14;65.04
75972;BME280;64651;47.540;19.088;2023-04-16T23:51:31;100147.94;;;12.03;65.28
75972;BME280;64651;47.540;19.088;2023-04-16T23:56:34;100156.97;;;12.09;65.27
